This is the latest recevied weather packets stored in our database for station/object K7UHP. If no packets are shown the sender has not sent any weather packets the latest 1 day(s).
| Time | Temp. | Humidity | Pressure | Rain* | Wind** | Luminosity | Snow |
|---|---|---|---|---|---|---|---|
| 1778019289 | 14.44° C | 50% | 1010.8 hPa | 0 mm | 0.89 m/s, 111° | - | - |
| 1778018689 | 14.44° C | 51% | 1010.9 hPa | 0 mm | 0.45 m/s, 131° | - | - |
| 1778018059 | 13.89° C | 52% | 1011.1 hPa | 0.25 mm | 1.34 m/s, 159° | - | - |
| 1778017438 | 13.89° C | 53% | 1011.3 hPa | 0.25 mm | 0.89 m/s, 69° | - | - |
| 1778016808 | 13.33° C | 55% | 1011.4 hPa | 0.25 mm | 2.24 m/s, 104° | - | - |
| 1778016207 | 12.78° C | 60% | 1011.6 hPa | 0.25 mm | 2.24 m/s, 103° | - | - |
| 1778015577 | 12.78° C | 62% | 1011.6 hPa | 0.25 mm | 0.89 m/s, 71° | - | - |
| 1778014947 | 13.33° C | 54% | 1011.6 hPa | 0.25 mm | 0 m/s | - | - |
| 1778014347 | 13.89° C | 53% | 1011.8 hPa | 0 mm | 1.34 m/s, 13° | - | - |
| 1778013717 | 13.89° C | 55% | 1011.9 hPa | 0 mm | 0.89 m/s, 29° | - | - |
| 1778013087 | 13.89° C | 56% | 1011.8 hPa | 0 mm | 0.45 m/s, 323° | - | - |
| 1778012487 | 13.89° C | 55% | 1011.7 hPa | 0 mm | 2.24 m/s, 314° | - | - |
| 1778011887 | 14.44° C | 50% | 1011.6 hPa | 0 mm | 0.45 m/s, 189° | - | - |
| 1778011257 | 14.44° C | 48% | 1011.4 hPa | 0 mm | 0 m/s | - | - |
| 1778010627 | 14.44° C | 46% | 1011.4 hPa | 0 mm | 2.24 m/s, 251° | - | - |
| 1778010001 | 14.44° C | 47% | 1011.3 hPa | 0 mm | 2.24 m/s, 235° | - | - |
| 1778009397 | 14.44° C | 49% | 1011.3 hPa | 0 mm | 0.89 m/s, 169° | - | - |
| 1778008767 | 14.44° C | 50% | 1011.3 hPa | 0 mm | 0.89 m/s, 177° | - | - |
| 1778008167 | 13.89° C | 51% | 1011.3 hPa | 0 mm | 1.34 m/s, 172° | - | - |
| 1778007537 | 13.89° C | 54% | 1011.4 hPa | 0 mm | 2.24 m/s, 167° | - | - |
| 1778006907 | 13.89° C | 53% | 1011.5 hPa | 0 mm | 1.34 m/s, 167° | - | - |
| 1778006277 | 13.89° C | 51% | 1011.5 hPa | 0 mm | 3.13 m/s, 116° | - | - |
| 1778005677 | 13.89° C | 49% | 1011.5 hPa | 0 mm | 2.68 m/s, 220° | - | - |
| 1778005047 | 13.89° C | 48% | 1011.5 hPa | 0 mm | 1.34 m/s, 195° | - | - |
| 1778004417 | 13.89° C | 48% | 1011.5 hPa | 0 mm | 2.24 m/s, 205° | - | - |
* Rain latest hour (hover to see other rain measurements)
** Current wind speed in m/s (hover to see current wind gust speed)